Senator Beck Stream Gauge Full Daily Data
| Date | Water Temperature (C°) | Conductivity (µS/cm), Corrected | Depth (ft) | Discharge (cfs) |
|---|---|---|---|---|
| 2026-06-15 00:00:00 | 0.048 | 8.18 | 0.881 | 9.61 |
| 2026-06-16 00:00:00 | 0.049 | 8.14 | 0.867 | 9.19 |
| 2026-06-17 00:00:00 | 0.05 | 8.59 | 0.859 | 9 |
| 2026-06-18 00:00:00 | 0.051 | 8.68 | 0.848 | 8.7 |
| 2026-06-19 00:00:00 | 0.052 | 8.52 | 0.829 | 8.21 |
| 2026-06-20 00:00:00 | 0.053 | 8.85 | 0.818 | 7.928 |
| 2026-06-21 00:00:00 | 0.053 | 8.65 | 0.799 | 7.479 |
| 2026-06-22 00:00:00 | 0.054 | 8.71 | 0.776 | 6.945 |
| 2026-06-23 00:00:00 | 0.055 | 8.63 | 0.752 | 6.424 |
| 2026-06-24 00:00:00 | 0.055 | 8.28 | 0.733 | 6.01 |
| 2026-06-25 00:00:00 | 0.056 | 8.6 | 0.76 | 6.587 |
| 2026-06-26 00:00:00 | 0.057 | 8.57 | 0.745 | 6.27 |
| 2026-06-27 00:00:00 | 0.058 | 8.8 | 0.728 | 5.911 |
| 2026-06-28 00:00:00 | 0.058 | 8.74 | 0.698 | 5.328 |
| 2026-06-29 00:00:00 | 0.058 | 8.6 | 0.663 | 4.68 |
| 2026-06-30 00:00:00 | 0.059 | 8.48 | 0.628 | 4.086 |
| 2026-07-01 00:00:00 | 0.059 | 8.5 | 0.599 | 3.646 |
| 2026-07-02 00:00:00 | 0.06 | 8.45 | 0.575 | 3.29 |
| 2026-07-03 00:00:00 | 0.06 | 8.55 | 0.552 | 2.979 |
| 2026-07-04 00:00:00 | 0.061 | 8.47 | 0.533 | 2.741 |
| 2026-07-05 00:00:00 | 0.061 | 8.45 | 0.519 | 2.562 |
| 2026-07-06 00:00:00 | 0.062 | 8.35 | 0.506 | 2.408 |
| 2026-07-07 00:00:00 | 0.062 | 8.2 | 0.496 | 2.298 |
| 2026-07-08 00:00:00 | 0.064 | 8.95 | 0.494 | 2.278 |
| 2026-07-09 00:00:00 | 0.064 | 8.71 | 0.487 | 2.197 |
| 2026-07-10 00:00:00 | 0.064 | 8.29 | 0.477 | 2.097 |
| 2026-07-11 00:00:00 | 0.065 | 9.04 | 0.467 | 1.985 |
| 2026-07-12 00:00:00 | 0.066 | 8.9 | 0.455 | 1.866 |
| 2026-07-13 00:00:00 | 0.066 | 9 | 0.446 | 1.784 |
| 2026-07-14 00:00:00 | 0.067 | 9.2 | 0.441 | 1.733 |
| 2026-07-15 00:00:00 | 0.067 | 9.15 | 0.436 | 1.693 |
| 2026-07-16 00:00:00 | 0.067 | 9.01 | 0.436 | 1.691 |
| 2026-07-17 00:00:00 | 0.067 | 8.73 | 0.437 | 1.7 |
| 2026-07-18 00:00:00 | 0.067 | 8.55 | 0.436 | 1.686 |
| 2026-07-19 00:00:00 | 0.069 | 9.42 | 0.442 | 1.745 |
| 2026-07-20 00:00:00 | 0.071 | 9.83 | 0.438 | 1.709 |
| 2026-07-21 00:00:00 | 0.07 | 9.55 | 0.427 | 1.604 |
| 2026-07-22 00:00:00 | 0.071 | 9.75 | 0.421 | 1.555 |
| 2026-07-23 00:00:00 | 0.071 | 9.33 | 0.433 | 1.665 |
| 2026-07-24 00:00:00 | 0.071 | 9.17 | 0.447 | 1.793 |
| 2026-07-25 00:00:00 | 0.071 | 8.99 | 0.447 | 1.792 |
| 2026-07-26 00:00:00 | 0.072 | 9.27 | 0.442 | 1.741 |
| 2026-07-27 00:00:00 | 0.072 | 9.29 | 0.44 | 1.726 |
| 2026-07-28 00:00:00 | 0.072 | 9.2 | 0.44 | 1.725 |
| 2026-07-29 00:00:00 | 0.074 | 9.33 | 0.444 | 1.762 |
| 2026-07-30 00:00:00 | 0.074 | 9.54 | 0.476 | 2.085 |
| 2026-07-31 00:00:00 | 0.073 | 9.24 | 0.491 | 2.246 |
| 2026-08-01 00:00:00 | 0.073 | 8.87 | 0.473 | 2.055 |
| 2026-08-02 00:00:00 | 0.075 | 9.24 | 0.453 | 1.852 |
| 2026-08-03 00:00:00 | 0.075 | 9.44 | 0.437 | 1.7 |
| 2026-08-04 00:00:00 | 0.076 | 9.4 | 0.425 | 1.592 |
| 2026-08-05 00:00:00 | 0.076 | 9.69 | 0.416 | 1.513 |
| 2026-08-06 00:00:00 | 0.077 | 9.78 | 0.408 | 1.445 |
| 2026-08-07 00:00:00 | 0.077 | 9.75 | 0.401 | 1.384 |
| 2026-08-08 00:00:00 | 0.076 | 9.41 | 0.395 | 1.343 |
| 2026-08-09 00:00:00 | 0.077 | 9.64 | 0.392 | 1.314 |
| 2026-08-10 00:00:00 | 0.079 | 10.55 | 0.389 | 1.294 |
| 2026-08-11 00:00:00 | 0.078 | 9.87 | 0.386 | 1.271 |
| 2026-08-12 00:00:00 | 0.077 | 9.7 | 0.385 | 1.266 |
| 2026-08-13 00:00:00 | 0.077 | 9.62 | 0.392 | 1.316 |
| 2026-08-14 00:00:00 | 0.076 | 9.04 | 0.418 | 1.531 |
| 2026-08-15 00:00:00 | 0.076 | 8.94 | 0.437 | 1.701 |
| 2026-08-16 00:00:00 | 0.077 | 9.01 | 0.44 | 1.728 |
| 2026-08-17 00:00:00 | 0.077 | 8.95 | 0.424 | 1.582 |
| 2026-08-18 00:00:00 | 0.078 | 9.24 | 0.409 | 1.457 |
| 2026-08-19 00:00:00 | 0.079 | 9.83 | 0.4 | 1.379 |
| 2026-08-20 00:00:00 | 0.079 | 9.7 | 0.394 | 1.331 |
| 2026-08-21 00:00:00 | 0.078 | 9.11 | 0.393 | 1.321 |
| 2026-08-22 00:00:00 | 0.077 | 8.99 | 0.397 | 1.356 |
| 2026-08-23 00:00:00 | 0.078 | 9.12 | 0.404 | 1.411 |
| 2026-08-24 00:00:00 | 0.078 | 8.87 | 0.412 | 1.481 |
| 2026-08-25 00:00:00 | 0.078 | 8.46 | 0.41 | 1.464 |
| 2026-08-26 00:00:00 | 0.079 | 8.84 | 0.41 | 1.458 |
| 2026-08-27 00:00:00 | 0.08 | 8.93 | 0.413 | 1.489 |
| 2026-08-28 00:00:00 | 0.08 | 9.11 | 0.405 | 1.422 |
| 2026-08-29 00:00:00 | 0.081 | 9.53 | 0.397 | 1.358 |
| 2026-08-30 00:00:00 | 0.082 | 9.61 | 0.397 | 1.355 |
| 2026-08-31 00:00:00 | 0.084 | 8.81 | 0.411 | 1.475 |
| 2026-09-01 00:00:00 | 0.081 | 8.54 | 0.455 | 1.87 |
| 2026-09-02 00:00:00 | 0.082 | 8.66 | 0.48 | 2.124 |